Time;durP1;ratioP1;P1;durP2;ratioP2;P2;SDS_P1;SDS_P2;PMS_P1;PMS_P2;Temp;Humidity;BMP_temperature;BMP_pressure;BME280_temperature;BME280_humidity;BME280_pressure;Samples;Min_cycle;Max_cycle;Signal;HPM_P1;HPM_P2
2022/01/03 00:01:01;;;;;;;;;;;;;;;8.60;62.94;99788.25;4428422;32;33832;-83
2022/01/03 00:03:30;;;;;;;;;;;;;;;8.26;64.12;99794.72;4418065;32;33158;-83
2022/01/03 00:05:57;;;;;;;;;;;;;;;8.55;63.39;99786.00;4430648;32;34492;-83
2022/01/03 00:08:26;;;;;;;;;;;;;;;8.18;64.53;99791.00;4418004;32;34595;-83
2022/01/03 00:10:54;;;;;;;;;;;;;;;8.25;64.43;99790.41;4418421;32;34780;-83
2022/01/03 00:13:21;;;;;;;;;;;;;;;8.03;64.81;99793.13;4404725;32;32038;-83
2022/01/03 00:15:50;;;;;;;;;;;;;;;7.70;65.73;99793.28;4417178;32;33106;-83
2022/01/03 00:18:18;;;;;;;;;;;;;;;7.77;65.34;99789.19;4430168;32;33644;-83
2022/01/03 00:20:49;;;;;;;;;;;;;;;7.85;65.37;99793.84;4429564;32;34341;-83
2022/01/03 00:23:17;;;;;;;;;;;;;;;8.00;65.32;99789.91;4420116;32;32374;-83
2022/01/03 00:25:46;;;;;;;;;;;;;;;8.09;65.02;99787.31;4444359;32;33794;-83
2022/01/03 00:28:15;;;;;;;;;;;;;;;8.03;65.24;99787.00;4430520;32;34554;-83
2022/01/03 00:30:44;;;;;;;;;;;;;;;8.07;64.90;99789.28;4420103;32;34557;-84
2022/01/03 00:33:11;;;;;;;;;;;;;;;8.14;64.51;99776.34;4444233;32;33229;-83
2022/01/03 00:35:39;;;;;;;;;;;;;;;7.97;65.05;99780.41;4429466;32;33574;-83
2022/01/03 00:38:09;;;;;;;;;;;;;;;8.09;64.61;99781.19;4429777;32;34436;-83
2022/01/03 00:40:37;;;;;;;;;;;;;;;8.06;64.34;99765.53;4430083;32;34557;-83
2022/01/03 00:43:04;;;;;;;;;;;;;;;8.25;64.43;99765.69;4430025;32;33532;-83
2022/01/03 00:45:32;;;;;;;;;;;;;;;8.16;64.46;99774.41;4414155;32;34893;-83
2022/01/03 00:48:00;;;;;;;;;;;;;;;8.16;64.37;99772.59;4423159;32;34802;-82
2022/01/03 00:50:29;;;;;;;;;;;;;;;7.94;65.37;99779.81;4414455;32;34299;-83
2022/01/03 00:52:57;;;;;;;;;;;;;;;8.30;63.70;99766.97;4427212;32;32623;-83
2022/01/03 00:55:24;;;;;;;;;;;;;;;8.13;64.01;99775.47;4428534;32;34511;-83
2022/01/03 00:58:02;;;;;;;;;;;;;;;8.37;64.04;99767.31;4413609;32;35005;-83
2022/01/03 01:00:31;;;;;;;;;;;;;;;8.05;64.94;99777.97;4423953;32;33854;-83
2022/01/03 01:03:11;;;;;;;;;;;;;;;8.04;65.31;99786.88;4409716;32;32744;-83
2022/01/03 01:05:41;;;;;;;;;;;;;;;8.07;65.25;99783.12;4390249;32;33141;-84
2022/01/03 01:08:08;;;;;;;;;;;;;;;8.22;66.10;99773.91;4414364;32;35081;-82
2022/01/03 01:10:38;;;;;;;;;;;;;;;8.24;65.94;99767.53;4402008;32;33670;-82
2022/01/03 01:13:07;;;;;;;;;;;;;;;7.97;66.69;99769.81;4404427;32;32616;-83
2022/01/03 01:15:36;;;;;;;;;;;;;;;8.14;66.30;99766.59;4426573;32;34133;-83
2022/01/03 01:18:04;;;;;;;;;;;;;;;8.30;66.20;99769.62;4421975;32;34332;-83
2022/01/03 01:20:35;;;;;;;;;;;;;;;8.23;66.37;99771.16;4425901;32;34979;-83
2022/01/03 01:23:03;;;;;;;;;;;;;;;8.30;66.18;99769.62;4414116;32;33203;-83
2022/01/03 01:28:05;;;;;;;;;;;;;;;8.38;65.06;99767.19;4422491;32;35757;-84
2022/01/03 01:30:34;;;;;;;;;;;;;;;8.38;64.71;99764.53;4427179;32;34531;-83
2022/01/03 01:33:03;;;;;;;;;;;;;;;8.41;64.41;99761.62;4422222;32;34032;-84
2022/01/03 01:35:35;;;;;;;;;;;;;;;8.40;64.17;99757.28;4416322;32;33847;-83
2022/01/03 01:38:03;;;;;;;;;;;;;;;8.34;63.89;99744.56;4423465;32;35339;-83
2022/01/03 01:40:34;;;;;;;;;;;;;;;8.36;63.68;99747.91;4426898;32;35067;-83
2022/01/03 01:43:02;;;;;;;;;;;;;;;8.59;62.32;99746.75;4414428;32;32772;-83
2022/01/03 01:45:29;;;;;;;;;;;;;;;8.25;63.41;99745.34;4428204;32;33605;-83
2022/01/03 01:47:58;;;;;;;;;;;;;;;8.13;63.50;99735.75;4427197;32;34455;-83
2022/01/03 01:50:28;;;;;;;;;;;;;;;8.19;63.32;99735.25;4413185;32;34389;-82
2022/01/03 01:52:56;;;;;;;;;;;;;;;8.06;63.71;99726.66;4419307;32;32991;-83
2022/01/03 01:55:24;;;;;;;;;;;;;;;8.01;63.87;99730.66;4424571;32;33640;-83
2022/01/03 01:58:06;;;;;;;;;;;;;;;7.67;66.18;99729.16;4405588;32;34325;-83
2022/01/03 02:00:34;;;;;;;;;;;;;;;7.62;67.17;99726.03;4393915;32;33964;-83
2022/01/03 02:03:03;;;;;;;;;;;;;;;7.79;66.85;99736.06;4423248;32;32912;-82
2022/01/03 02:05:38;;;;;;;;;;;;;;;7.93;66.64;99731.28;4423425;32;34983;-83
2022/01/03 02:08:12;;;;;;;;;;;;;;;7.93;67.28;99739.25;4423260;32;35112;-83
2022/01/03 02:10:44;;;;;;;;;;;;;;;8.08;67.18;99737.97;4414722;32;34243;-83
2022/01/03 02:13:15;;;;;;;;;;;;;;;8.16;67.09;99729.34;4426794;32;32763;-83
2022/01/03 02:15:48;;;;;;;;;;;;;;;8.26;67.06;99731.12;4428106;32;32744;-83
2022/01/03 02:18:16;;;;;;;;;;;;;;;8.33;66.91;99724.34;4423761;32;35586;-83
2022/01/03 02:20:44;;;;;;;;;;;;;;;8.31;67.32;99731.56;4423408;32;33774;-83
2022/01/03 02:23:12;;;;;;;;;;;;;;;8.27;67.39;99726.66;4424085;32;32654;-83
2022/01/03 02:25:40;;;;;;;;;;;;;;;8.52;66.60;99713.81;4401911;32;33746;-83
2022/01/03 02:28:09;;;;;;;;;;;;;;;8.30;67.16;99708.69;4413744;32;35705;-83
2022/01/03 02:30:36;;;;;;;;;;;;;;;8.73;65.94;99709.28;4426445;32;34611;-83
2022/01/03 02:33:07;;;;;;;;;;;;;;;8.89;65.18;99712.28;4426193;32;32739;-83
2022/01/03 02:35:35;;;;;;;;;;;;;;;8.86;65.13;99720.47;4428499;32;34756;-83
2022/01/03 02:38:04;;;;;;;;;;;;;;;8.76;65.33;99716.97;4413969;32;34796;-83
2022/01/03 02:40:32;;;;;;;;;;;;;;;8.90;64.81;99708.66;4413359;32;34569;-83
2022/01/03 02:42:59;;;;;;;;;;;;;;;8.77;65.12;99708.88;4396074;32;33294;-83
2022/01/03 02:45:27;;;;;;;;;;;;;;;9.32;63.43;99694.16;4415925;32;34423;-83
2022/01/03 02:47:56;;;;;;;;;;;;;;;9.38;62.76;99698.94;4416314;32;34975;-82
2022/01/03 02:50:25;;;;;;;;;;;;;;;9.33;62.91;99712.63;4428622;32;33947;-84
2022/01/03 02:52:53;;;;;;;;;;;;;;;9.30;63.21;99702.28;4428763;32;32800;-83
2022/01/03 02:55:20;;;;;;;;;;;;;;;9.05;64.42;99716.06;4428957;32;34280;-83
2022/01/03 02:57:50;;;;;;;;;;;;;;;9.20;63.87;99687.31;4416120;32;34612;-82
2022/01/03 03:00:19;;;;;;;;;;;;;;;8.97;64.73;99707.12;4417205;32;35470;-83
2022/01/03 03:02:47;;;;;;;;;;;;;;;9.16;63.82;99701.84;4415353;32;32361;-83
2022/01/03 03:05:16;;;;;;;;;;;;;;;9.16;63.82;99725.75;4428307;32;34215;-83
2022/01/03 03:07:45;;;;;;;;;;;;;;;9.05;64.06;99731.16;4427627;32;34274;-83
2022/01/03 03:10:14;;;;;;;;;;;;;;;9.32;62.96;99726.87;4442749;32;33553;-83
2022/01/03 03:12:41;;;;;;;;;;;;;;;9.34;62.57;99716.09;4442732;32;33903;-83
2022/01/03 03:15:10;;;;;;;;;;;;;;;9.09;63.46;99711.34;4415982;32;33486;-83
2022/01/03 03:17:39;;;;;;;;;;;;;;;9.18;63.26;99724.59;4415129;32;36046;-83
2022/01/03 03:20:08;;;;;;;;;;;;;;;9.59;62.02;99719.06;4428364;32;33605;-83
2022/01/03 03:22:36;;;;;;;;;;;;;;;9.60;62.02;99704.81;4428702;32;33905;-83
2022/01/03 03:25:12;;;;;;;;;;;;;;;9.56;62.53;99707.88;4443059;32;34507;-83
2022/01/03 03:27:43;;;;;;;;;;;;;;;9.44;62.71;99698.38;4429966;32;35920;-83
2022/01/03 03:30:15;;;;;;;;;;;;;;;9.60;62.57;99704.81;4405586;32;33828;-83
2022/01/03 03:32:43;;;;;;;;;;;;;;;9.47;62.58;99711.37;4429816;32;33647;-83
2022/01/03 03:35:11;;;;;;;;;;;;;;;9.72;nan;99705.50;4416663;32;32410;-83
2022/01/03 03:37:40;;;;;;;;;;;;;;;9.49;62.85;99698.78;4419174;32;35977;-83
2022/01/03 03:40:08;;;;;;;;;;;;;;;9.59;62.50;99710.25;4432030;32;35173;-83
2022/01/03 03:42:36;;;;;;;;;;;;;;;9.81;61.73;99700.16;4409016;32;31701;-83
2022/01/03 03:45:03;;;;;;;;;;;;;;;9.42;62.89;99706.47;4428306;32;33189;-85
2022/01/03 03:47:32;;;;;;;;;;;;;;;9.82;61.91;99696.53;4416032;32;34854;-83
2022/01/03 03:50:00;;;;;;;;;;;;;;;9.69;62.49;99708.44;4428665;32;33535;-83
2022/01/03 03:52:28;;;;;;;;;;;;;;;10.05;61.81;99705.06;4415893;32;31638;-83
2022/01/03 03:54:56;;;;;;;;;;;;;;;10.05;61.47;99703.25;4428614;32;34232;-83
2022/01/03 03:57:24;;;;;;;;;;;;;;;10.19;61.26;99715.25;4428733;32;34969;-83
2022/01/03 03:59:52;;;;;;;;;;;;;;;10.05;61.54;99705.06;4407405;32;35203;-83
2022/01/03 04:02:20;;;;;;;;;;;;;;;10.07;61.62;99711.06;4390800;32;34628;-84
2022/01/03 04:04:49;;;;;;;;;;;;;;;10.03;60.94;99733.59;4428440;32;34500;-83
2022/01/03 04:07:16;;;;;;;;;;;;;;;10.19;60.60;99697.47;4430423;32;35883;-84
2022/01/03 04:09:44;;;;;;;;;;;;;;;10.07;60.80;99719.03;4426418;32;34859;-84
2022/01/03 04:12:12;;;;;;;;;;;;;;;10.11;60.78;99718.59;4429570;32;32442;-84
2022/01/03 04:14:39;;;;;;;;;;;;;;;10.36;59.79;99709.16;4392181;32;34289;-83
2022/01/03 04:17:09;;;;;;;;;;;;;;;10.29;59.71;99697.47;4428450;32;34909;-83
2022/01/03 04:19:37;;;;;;;;;;;;;;;10.04;61.17;99717.53;4424908;32;34531;-83
2022/01/03 04:22:05;;;;;;;;;;;;;;;10.21;60.49;99714.09;4393953;32;31954;-82
2022/01/03 04:24:32;;;;;;;;;;;;;;;9.95;61.06;99712.19;4424733;32;34386;-83
2022/01/03 04:27:01;;;;;;;;;;;;;;;10.11;60.84;99715.12;4425073;32;34854;-83
2022/01/03 04:29:29;;;;;;;;;;;;;;;9.55;63.11;99714.19;4416001;32;33592;-83
2022/01/03 04:31:56;;;;;;;;;;;;;;;9.72;62.05;99716.97;4428478;32;33012;-83
2022/01/03 04:34:24;;;;;;;;;;;;;;;10.18;60.92;99725.03;4428950;32;34058;-84
2022/01/03 04:36:52;;;;;;;;;;;;;;;10.34;60.29;99725.28;4428347;32;35941;-83
2022/01/03 04:39:20;;;;;;;;;;;;;;;10.38;60.20;99728.50;4428304;32;34693;-84
2022/01/03 04:41:49;;;;;;;;;;;;;;;10.41;59.85;99723.72;4388333;32;33135;-84
2022/01/03 04:44:17;;;;;;;;;;;;;;;10.45;59.68;99724.25;4426030;32;34115;-83
2022/01/03 04:46:45;;;;;;;;;;;;;;;10.26;59.95;99719.84;4428075;32;35381;-83
2022/01/03 04:49:13;;;;;;;;;;;;;;;10.37;59.97;99717.00;4415372;32;33917;-83
2022/01/03 04:51:40;;;;;;;;;;;;;;;10.19;60.17;99715.25;4415531;32;34507;-84
2022/01/03 04:54:08;;;;;;;;;;;;;;;10.43;59.64;99702.28;4415502;32;33626;-84
2022/01/03 04:56:37;;;;;;;;;;;;;;;10.60;59.12;99718.34;4429675;32;35750;-83
2022/01/03 04:59:05;;;;;;;;;;;;;;;10.29;59.65;99710.75;4429936;32;34507;-83
2022/01/03 05:01:32;;;;;;;;;;;;;;;10.44;59.32;99706.63;4427619;32;33879;-84
2022/01/03 05:04:01;;;;;;;;;;;;;;;10.02;60.52;99707.97;4428039;32;34806;-83
2022/01/03 05:06:29;;;;;;;;;;;;;;;10.28;60.17;99723.19;4414586;32;34980;-83
2022/01/03 05:08:57;;;;;;;;;;;;;;;10.46;59.30;99705.50;4428255;32;34150;-83
2022/01/03 05:11:25;;;;;;;;;;;;;;;10.21;60.05;99698.16;4427827;32;32976;-83
2022/01/03 05:13:52;;;;;;;;;;;;;;;10.04;60.18;99701.59;4415464;32;34164;-83
2022/01/03 05:16:20;;;;;;;;;;;;;;;10.20;59.71;99690.34;4426676;32;34264;-84
2022/01/03 05:18:47;;;;;;;;;;;;;;;10.47;59.29;99696.53;4426961;32;35163;-83
2022/01/03 05:21:15;;;;;;;;;;;;;;;10.58;58.99;99698.19;4426835;32;33429;-84
2022/01/03 05:23:43;;;;;;;;;;;;;;;10.44;59.30;99690.66;4426041;32;33386;-83
2022/01/03 05:26:12;;;;;;;;;;;;;;;10.65;58.68;99680.66;4412925;32;33265;-84
2022/01/03 05:28:40;;;;;;;;;;;;;;;10.68;58.65;99677.69;4426898;32;34507;-83
2022/01/03 05:31:09;;;;;;;;;;;;;;;10.70;58.33;99676.56;4413560;32;33221;-84
2022/01/03 05:33:37;;;;;;;;;;;;;;;10.49;58.99;99675.94;4427443;32;33605;-84
2022/01/03 05:36:05;;;;;;;;;;;;;;;10.43;59.15;99681.87;4428253;32;35870;-85
2022/01/03 05:38:33;;;;;;;;;;;;;;;10.37;59.46;99669.12;4412660;32;32879;-82
2022/01/03 05:41:02;;;;;;;;;;;;;;;10.35;59.45;99675.59;4400627;32;33063;-82
2022/01/03 05:43:30;;;;;;;;;;;;;;;10.37;59.12;99671.81;4425774;32;34244;-82
2022/01/03 05:45:57;;;;;;;;;;;;;;;10.44;59.58;99683.53;4441588;32;34349;-84
2022/01/03 05:48:25;;;;;;;;;;;;;;;10.58;58.86;99682.22;4417390;32;33870;-82
2022/01/03 05:50:53;;;;;;;;;;;;;;;10.85;57.99;99683.03;4416981;32;32662;-82
2022/01/03 05:53:23;;;;;;;;;;;;;;;10.72;58.26;99679.06;4430162;32;33956;-84
2022/01/03 05:55:51;;;;;;;;;;;;;;;10.91;57.76;99669.16;4416690;32;33476;-82
2022/01/03 05:58:19;;;;;;;;;;;;;;;11.07;57.23;99681.81;4417643;32;34804;-84
2022/01/03 06:00:50;;;;;;;;;;;;;;;11.17;56.94;99683.41;4444369;32;33405;-83
2022/01/03 06:03:22;;;;;;;;;;;;;;;11.08;57.31;99675.47;4417855;32;34161;-84
2022/01/03 06:08:22;;;;;;;;;;;;;;;11.15;57.04;99685.38;4443885;32;34987;-82
2022/01/03 06:10:50;;;;;;;;;;;;;;;11.17;57.11;99671.91;4416998;32;33367;-83
2022/01/03 06:13:17;;;;;;;;;;;;;;;11.06;57.01;99669.47;4443704;32;33597;-83
2022/01/03 06:15:46;;;;;;;;;;;;;;;11.00;57.43;99675.41;4430521;32;34767;-83
2022/01/03 06:18:14;;;;;;;;;;;;;;;10.77;58.26;99679.47;4444492;32;34399;-83
2022/01/03 06:20:43;;;;;;;;;;;;;;;10.97;57.48;99667.72;4430402;32;33499;-83
2022/01/03 06:23:12;;;;;;;;;;;;;;;10.84;58.05;99669.91;4404757;32;33415;-83
2022/01/03 06:25:40;;;;;;;;;;;;;;;10.94;57.85;99662.69;4395432;32;1103434;-83
2022/01/03 06:28:08;;;;;;;;;;;;;;;10.94;58.00;99671.50;4444230;32;33975;-84
2022/01/03 06:30:38;;;;;;;;;;;;;;;10.65;59.20;99678.00;4444284;32;32926;-83
2022/01/03 06:33:06;;;;;;;;;;;;;;;10.71;59.12;99694.19;4424671;32;33416;-83
2022/01/03 06:35:35;;;;;;;;;;;;;;;10.66;59.25;99699.13;4430381;32;35386;-83
2022/01/03 06:38:03;;;;;;;;;;;;;;;10.25;60.34;99717.31;4417028;32;33904;-83
2022/01/03 06:40:31;;;;;;;;;;;;;;;10.73;59.19;99718.84;4429965;32;32908;-83
2022/01/03 06:42:59;;;;;;;;;;;;;;;10.58;59.12;99717.63;4404629;32;32969;-83
2022/01/03 06:45:27;;;;;;;;;;;;;;;10.58;59.04;99706.16;4435838;32;35827;-84
2022/01/03 06:47:56;;;;;;;;;;;;;;;10.83;58.33;99714.31;4436656;32;34856;-84
2022/01/03 06:50:24;;;;;;;;;;;;;;;10.76;58.66;99705.22;4418350;32;34660;-83
2022/01/03 06:52:53;;;;;;;;;;;;;;;10.94;58.06;99706.09;4422770;32;34005;-84
2022/01/03 06:55:21;;;;;;;;;;;;;;;11.08;57.68;99694.13;4422623;32;36075;-83
2022/01/03 06:57:49;;;;;;;;;;;;;;;11.04;57.92;99674.94;4421294;32;34129;-84
2022/01/03 07:00:17;;;;;;;;;;;;;;;11.02;58.13;99662.78;4434239;32;32676;-83
2022/01/03 07:02:45;;;;;;;;;;;;;;;10.76;58.88;99661.81;4400984;32;33633;-84
2022/01/03 07:05:13;;;;;;;;;;;;;;;10.74;59.00;99656.66;4414668;32;35473;-83
2022/01/03 07:07:41;;;;;;;;;;;;;;;10.60;59.29;99657.16;4405019;32;34652;-83
2022/01/03 07:10:11;;;;;;;;;;;;;;;10.66;59.56;99650.41;4414531;32;34322;-83
2022/01/03 07:12:39;;;;;;;;;;;;;;;10.76;59.45;99640.53;4419367;32;34636;-84
2022/01/03 07:20:40;;;;;;;;;;;;;;;11.28;57.66;99649.41;4419277;32;33080;-82
2022/01/03 07:23:07;;;;;;;;;;;;;;;11.75;55.76;99642.03;4404639;32;34854;-84
2022/01/03 07:25:35;;;;;;;;;;;;;;;12.06;55.01;99644.06;4402106;32;33419;-84
2022/01/03 07:28:02;;;;;;;;;;;;;;;12.29;53.88;99645.19;4403496;32;34782;-84
2022/01/03 07:30:30;;;;;;;;;;;;;;;12.57;52.96;99636.00;4421590;32;33025;-83
2022/01/03 07:32:58;;;;;;;;;;;;;;;12.94;51.28;99623.12;4390947;32;33297;-84
2022/01/03 07:35:25;;;;;;;;;;;;;;;13.02;50.96;99623.16;4407974;32;33574;-85
2022/01/03 07:37:53;;;;;;;;;;;;;;;13.07;49.98;99636.03;4411964;32;35252;-84
2022/01/03 07:40:24;;;;;;;;;;;;;;;13.37;49.13;99616.69;4404500;32;32164;-84
2022/01/03 07:42:51;;;;;;;;;;;;;;;13.45;48.64;99622.03;4408952;32;33405;-83
2022/01/03 07:45:19;;;;;;;;;;;;;;;13.43;48.94;99640.09;4424567;32;35297;-84
2022/01/03 07:47:46;;;;;;;;;;;;;;;13.61;47.45;99624.72;4399168;32;33670;-84
2022/01/03 07:50:16;;;;;;;;;;;;;;;13.75;48.01;99630.22;4428975;32;33272;-86
2022/01/03 07:52:43;;;;;;;;;;;;;;;13.66;47.05;99662.47;4419936;32;34323;-83
2022/01/03 07:55:15;;;;;;;;;;;;;;;13.66;47.34;99638.41;4428930;32;34931;-84
2022/01/03 07:57:43;;;;;;;;;;;;;;;13.84;46.95;99655.12;4428646;32;35740;-83
2022/01/03 08:00:12;;;;;;;;;;;;;;;13.97;46.70;99650.91;4428614;32;32647;-83
2022/01/03 08:02:41;;;;;;;;;;;;;;;14.05;47.30;99656.25;4403099;32;32805;-84
2022/01/03 08:05:10;;;;;;;;;;;;;;;14.31;46.28;99672.97;4415818;32;34058;-84
2022/01/03 08:07:38;;;;;;;;;;;;;;;14.10;45.84;99661.09;4428740;32;34178;-84
2022/01/03 08:10:07;;;;;;;;;;;;;;;14.29;45.66;99663.44;4403156;32;31363;-85
2022/01/03 08:12:35;;;;;;;;;;;;;;;14.38;46.20;99678.47;4428498;32;32538;-83
2022/01/03 08:15:02;;;;;;;;;;;;;;;14.17;46.08;99657.59;4415809;32;34432;-84
2022/01/03 08:17:31;;;;;;;;;;;;;;;14.05;45.75;99666.97;4415252;32;34431;-85
2022/01/03 08:19:58;;;;;;;;;;;;;;;14.28;46.33;99689.37;4415386;32;32680;-83
2022/01/03 08:22:26;;;;;;;;;;;;;;;14.39;45.90;99686.34;4414533;32;34894;-84
2022/01/03 08:24:58;;;;;;;;;;;;;;;14.33;45.84;99684.34;4408372;32;34551;-84
2022/01/03 08:27:25;;;;;;;;;;;;;;;14.37;44.96;99695.53;4402303;32;33346;-84
2022/01/03 08:29:53;;;;;;;;;;;;;;;14.20;46.37;99691.22;4399454;32;33926;-84
2022/01/03 08:32:21;;;;;;;;;;;;;;;14.49;46.04;99681.63;4427934;32;33395;-83
2022/01/03 08:34:50;;;;;;;;;;;;;;;14.51;45.94;99675.09;4401343;32;35663;-83
2022/01/03 08:37:17;;;;;;;;;;;;;;;14.28;45.74;99689.37;4428450;32;34720;-85
2022/01/03 08:39:45;;;;;;;;;;;;;;;14.43;45.93;99699.22;4426371;32;34130;-83
2022/01/03 08:42:13;;;;;;;;;;;;;;;14.24;46.11;99681.87;4393430;32;32565;-83
2022/01/03 08:44:40;;;;;;;;;;;;;;;14.42;45.91;99723.47;4415162;32;34873;-85
2022/01/03 08:47:08;;;;;;;;;;;;;;;14.38;46.69;99714.13;4415321;32;34451;-83
2022/01/03 08:49:35;;;;;;;;;;;;;;;14.37;45.87;99717.81;4415875;32;33660;-84
2022/01/03 08:52:05;;;;;;;;;;;;;;;14.32;46.03;99706.75;4405569;32;33357;-85
2022/01/03 08:54:33;;;;;;;;;;;;;;;14.02;46.59;99719.97;4429279;32;34241;-84
2022/01/03 08:57:01;;;;;;;;;;;;;;;14.18;46.99;99706.63;4411883;32;35039;-84
2022/01/03 08:59:29;;;;;;;;;;;;;;;14.11;47.44;99727.81;4420907;32;33330;-84
2022/01/03 09:01:57;;;;;;;;;;;;;;;14.25;47.44;99718.31;4420931;32;34262;-83
2022/01/03 09:04:25;;;;;;;;;;;;;;;14.21;47.38;99714.28;4415351;32;33799;-84
2022/01/03 09:06:59;;;;;;;;;;;;;;;14.36;47.70;99716.12;4386072;32;32142;-85
2022/01/03 09:09:29;;;;;;;;;;;;;;;14.08;47.83;99730.00;4424765;32;32894;-83
2022/01/03 09:11:59;;;;;;;;;;;;;;;14.33;47.65;99718.31;4420551;32;34138;-84
2022/01/03 09:14:27;;;;;;;;;;;;;;;14.32;47.33;99704.09;4426568;32;35014;-84
2022/01/03 09:16:55;;;;;;;;;;;;;;;13.84;48.27;99735.34;4415070;32;34833;-84
2022/01/03 09:19:23;;;;;;;;;;;;;;;14.08;47.30;99738.88;4428725;32;33946;-85
2022/01/03 09:21:58;;;;;;;;;;;;;;;13.98;47.26;99740.84;4402095;32;32342;-84
2022/01/03 09:24:44;;;;;;;;;;;;;;;13.91;47.01;99736.34;4415208;32;34709;-84
2022/01/03 09:30:01;;;;;;;;;;;;;;;13.78;47.37;99728.81;4428178;32;33391;-83
2022/01/03 09:32:28;;;;;;;;;;;;;;;13.87;47.76;99735.03;4414925;32;32488;-83
2022/01/03 09:34:57;;;;;;;;;;;;;;;13.99;47.17;99704.25;4414246;32;34014;-84
2022/01/03 09:37:25;;;;;;;;;;;;;;;13.88;47.39;99720.66;4427035;32;34045;-83
2022/01/03 09:39:54;;;;;;;;;;;;;;;14.14;47.41;99713.28;4427506;32;33171;-83
2022/01/03 09:42:23;;;;;;;;;;;;;;;14.08;46.75;99704.09;4414831;32;33296;-83
2022/01/03 09:44:51;;;;;;;;;;;;;;;14.09;46.92;99699.56;4426929;32;35968;-84
2022/01/03 09:47:19;;;;;;;;;;;;;;;14.14;47.04;99689.22;4424171;32;34914;-83
2022/01/03 09:49:47;;;;;;;;;;;;;;;14.00;46.77;99698.75;4422271;32;33217;-83
2022/01/03 09:52:15;;;;;;;;;;;;;;;14.23;46.57;99686.38;4429185;32;34796;-83
2022/01/03 09:54:43;;;;;;;;;;;;;;;14.19;47.24;99701.09;4420080;32;35453;-83
2022/01/03 09:57:12;;;;;;;;;;;;;;;13.93;47.28;99703.09;4414754;32;34588;-83
2022/01/03 09:59:41;;;;;;;;;;;;;;;13.99;47.50;99698.91;4421899;32;34691;-83
2022/01/03 10:02:09;;;;;;;;;;;;;;;14.39;46.45;99692.50;4414462;32;33663;-83
2022/01/03 10:04:37;;;;;;;;;;;;;;;14.09;47.12;99689.72;4421573;32;35069;-83
2022/01/03 10:07:07;;;;;;;;;;;;;;;13.74;47.84;99681.19;4414802;32;33631;-83
2022/01/03 10:09:35;;;;;;;;;;;;;;;13.84;47.81;99687.19;4428984;32;32567;-83
2022/01/03 10:12:03;;;;;;;;;;;;;;;13.78;47.89;99688.72;4427680;32;34416;-84
2022/01/03 10:14:31;;;;;;;;;;;;;;;14.09;47.55;99686.19;4427794;32;35512;-83
2022/01/03 10:16:59;;;;;;;;;;;;;;;13.67;48.30;99691.72;4423238;32;35401;-83
2022/01/03 10:19:27;;;;;;;;;;;;;;;13.75;47.90;99683.69;4426273;32;32692;-83
2022/01/03 10:21:55;;;;;;;;;;;;;;;13.74;47.81;99683.84;4421189;32;32716;-83
2022/01/03 10:24:33;;;;;;;;;;;;;;;13.80;48.46;99686.72;4412618;32;34482;-83
2022/01/03 10:27:01;;;;;;;;;;;;;;;13.97;47.47;99666.97;4413859;32;33940;-83
2022/01/03 10:29:31;;;;;;;;;;;;;;;14.14;47.12;99654.44;4412309;32;31946;-83
2022/01/03 10:32:01;;;;;;;;;;;;;;;14.15;47.62;99642.72;4395788;32;35220;-83
2022/01/03 10:34:31;;;;;;;;;;;;;;;14.03;47.70;99644.91;4424386;32;34875;-83
2022/01/03 10:36:59;;;;;;;;;;;;;;;13.90;47.88;99633.06;4425479;32;33941;-83
2022/01/03 10:39:28;;;;;;;;;;;;;;;13.63;48.49;99638.75;4425856;32;33925;-83
2022/01/03 10:42:17;;;;;;;;;;;;;;;13.90;48.39;99655.31;4401737;32;33263;-83
2022/01/03 10:44:45;;;;;;;;;;;;;;;13.79;48.37;99647.59;4425867;32;33898;-84
2022/01/03 10:47:15;;;;;;;;;;;;;;;13.78;48.85;99647.78;4425601;32;34323;-84
2022/01/03 10:49:43;;;;;;;;;;;;;;;13.80;48.59;99649.28;4386239;32;31546;-86
2022/01/03 10:52:16;;;;;;;;;;;;;;;14.06;48.31;99655.25;4420910;32;34393;-85
2022/01/03 10:55:04;;;;;;;;;;;;;;;13.93;48.68;99646.06;4426849;32;35013;-84
2022/01/03 10:57:52;;;;;;;;;;;;;;;14.07;48.06;99662.28;4425761;32;35654;-83
2022/01/03 11:00:40;;;;;;;;;;;;;;;14.12;47.47;99659.94;4423681;32;32572;-82
2022/01/03 11:03:39;;;;;;;;;;;;;;;13.99;48.56;99658.78;4426829;32;34006;-83
2022/01/03 11:06:21;;;;;;;;;;;;;;;14.01;48.44;99662.12;4427490;32;35306;-83
2022/01/03 11:11:43;;;;;;;;;;;;;;;14.16;48.01;99628.34;4426822;32;32521;-82
2022/01/03 11:14:34;;;;;;;;;;;;;;;14.17;48.15;99630.00;4415275;32;32467;-84
2022/01/03 11:17:20;;;;;;;;;;;;;;;14.16;47.98;99636.34;4425158;32;35245;-85
2022/01/03 11:19:48;;;;;;;;;;;;;;;14.23;48.44;99640.88;4421512;32;35253;-88
2022/01/03 11:22:34;;;;;;;;;;;;;;;14.43;48.73;99632.31;4413161;32;32785;-83
2022/01/03 11:25:03;;;;;;;;;;;;;;;14.73;46.98;99628.81;4427751;32;34872;-83
2022/01/03 11:27:31;;;;;;;;;;;;;;;14.67;47.24;99629.50;4422023;32;35131;-82
2022/01/03 11:30:06;;;;;;;;;;;;;;;14.62;47.10;99649.78;4410262;32;33116;-83
2022/01/03 11:32:36;;;;;;;;;;;;;;;14.78;46.71;99639.00;4401362;32;32358;-82
2022/01/03 11:35:04;;;;;;;;;;;;;;;14.88;45.63;99636.94;4427666;32;34686;-84
2022/01/03 11:37:34;;;;;;;;;;;;;;;14.65;45.96;99628.03;4412232;32;34271;-83
2022/01/03 11:40:02;;;;;;;;;;;;;;;14.40;46.44;99626.44;4394564;32;33372;-83
2022/01/03 11:42:33;;;;;;;;;;;;;;;14.60;46.36;99614.31;4422248;32;32878;-88
2022/01/03 11:45:03;;;;;;;;;;;;;;;14.55;45.60;99622.06;4422310;32;34138;-84
2022/01/03 11:47:31;;;;;;;;;;;;;;;14.17;46.57;99630.84;4423097;32;35545;-84
2022/01/03 11:49:59;;;;;;;;;;;;;;;14.38;46.17;99629.28;4418263;32;34508;-84
2022/01/03 11:52:28;;;;;;;;;;;;;;;14.41;45.27;99628.13;4412850;32;31270;-84
2022/01/03 11:54:56;;;;;;;;;;;;;;;14.30;45.93;99635.66;4426073;32;33783;-84
2022/01/03 11:57:40;;;;;;;;;;;;;;;14.05;46.52;99642.06;4426495;32;35137;-83
2022/01/03 12:05:46;;;;;;;;;;;;;;;14.46;45.68;99639.16;4417603;32;33219;-84
2022/01/03 12:08:20;;;;;;;;;;;;;;;14.51;45.47;99653.69;4415942;32;35739;-84
2022/01/03 12:10:50;;;;;;;;;;;;;;;14.53;45.18;99640.97;4428695;32;34443;-85
2022/01/03 12:13:20;;;;;;;;;;;;;;;14.18;46.19;99647.75;4415687;32;31645;-83
2022/01/03 12:16:02;;;;;;;;;;;;;;;14.27;46.30;99631.53;4415406;32;32304;-83
2022/01/03 12:18:30;;;;;;;;;;;;;;;14.27;46.36;99628.00;4414900;32;34459;-83
2022/01/03 12:20:59;;;;;;;;;;;;;;;14.15;46.48;99616.78;4414048;32;34752;-83
2022/01/03 12:23:40;;;;;;;;;;;;;;;14.44;46.09;99623.25;4414920;32;31632;-84
2022/01/03 12:26:12;;;;;;;;;;;;;;;14.45;46.26;99606.19;4414716;32;33971;-83
2022/01/03 12:29:08;;;;;;;;;;;;;;;14.22;46.26;99630.34;4413393;32;33948;-84
2022/01/03 12:31:54;;;;;;;;;;;;;;;14.03;46.99;99628.00;4424173;32;35663;-84
2022/01/03 12:34:22;;;;;;;;;;;;;;;14.04;47.23;99635.87;4427212;32;33611;-83
2022/01/03 12:37:09;;;;;;;;;;;;;;;13.85;47.49;99641.59;4414968;32;34221;-84
2022/01/03 12:39:57;;;;;;;;;;;;;;;13.87;47.89;99649.44;4427921;32;33336;-81
2022/01/03 12:42:51;;;;;;;;;;;;;;;14.05;47.48;99652.78;4422722;32;35611;-84
2022/01/03 12:45:29;;;;;;;;;;;;;;;13.99;47.93;99661.47;4428717;32;33259;-81
2022/01/03 12:48:15;;;;;;;;;;;;;;;14.19;47.17;99654.78;4443243;32;34985;-84
2022/01/03 12:50:43;;;;;;;;;;;;;;;14.30;47.12;99649.06;4441158;32;34621;-85
2022/01/03 12:53:13;;;;;;;;;;;;;;;14.27;47.15;99652.06;4430907;32;34468;-85
2022/01/03 12:55:41;;;;;;;;;;;;;;;14.08;47.73;99655.94;4418008;32;33973;-82
2022/01/03 12:58:14;;;;;;;;;;;;;;;14.31;47.74;99653.41;4445239;32;34606;-87
2022/01/03 13:00:44;;;;;;;;;;;;;;;14.19;47.87;99662.78;4418487;32;34792;-83
2022/01/03 13:03:33;;;;;;;;;;;;;;;14.00;48.20;99655.09;4440783;32;34592;-83
2022/01/03 13:06:11;;;;;;;;;;;;;;;13.72;49.09;99654.62;4418351;32;33177;-84
2022/01/03 13:08:40;;;;;;;;;;;;;;;13.84;48.84;99647.94;4430726;32;34551;-84
2022/01/03 13:11:14;;;;;;;;;;;;;;;13.81;49.16;99663.47;4442540;32;34317;-82
2022/01/03 13:13:42;;;;;;;;;;;;;;;13.61;49.29;99651.47;4400272;32;33910;-82
2022/01/03 13:16:29;;;;;;;;;;;;;;;13.69;49.43;99662.97;4419265;32;34033;-85
2022/01/03 13:19:00;;;;;;;;;;;;;;;13.72;49.25;99659.13;4444906;32;33143;-84
2022/01/03 13:21:35;;;;;;;;;;;;;;;14.00;48.73;99655.09;4444641;32;35223;-84
2022/01/03 13:24:03;;;;;;;;;;;;;;;14.07;48.71;99664.13;4431039;32;35228;-83
2022/01/03 13:26:31;;;;;;;;;;;;;;;13.62;49.82;99671.84;4444424;32;33405;-83